createdAt,value
2018-10-03T00:00:25.709Z,2.90
2018-10-03T00:02:54.260Z,2.40
2018-10-03T00:05:22.704Z,2.83
2018-10-03T00:07:56.976Z,2.90
2018-10-03T00:10:25.393Z,2.30
2018-10-03T00:12:53.887Z,2.60
2018-10-03T00:15:22.432Z,2.40
2018-10-03T00:17:50.847Z,2.60
2018-10-03T00:20:19.323Z,3.20
2018-10-03T00:22:48.174Z,2.70
2018-10-03T00:25:16.709Z,3.20
2018-10-03T00:27:45.252Z,2.80
2018-10-03T00:30:15.154Z,2.73
2018-10-03T00:32:43.545Z,3.00
2018-10-03T00:35:12.080Z,2.83
2018-10-03T00:37:40.497Z,2.90
2018-10-03T00:40:09.040Z,3.30
2018-10-03T00:42:37.457Z,3.13
2018-10-03T00:45:06.751Z,2.70
2018-10-03T00:47:35.316Z,2.80
2018-10-03T00:50:03.818Z,2.70
2018-10-03T00:52:38.743Z,2.87
2018-10-03T00:55:14.483Z,3.07
2018-10-03T00:57:42.949Z,2.90
2018-10-03T01:00:11.556Z,3.40
2018-10-03T01:02:40.143Z,3.30
2018-10-03T01:05:08.573Z,3.07
2018-10-03T01:07:37.063Z,2.60
2018-10-03T01:10:05.711Z,3.43
2018-10-03T01:12:34.232Z,2.50
2018-10-03T01:15:02.721Z,2.63
2018-10-03T01:17:31.148Z,2.93
2018-10-03T01:19:59.596Z,2.83
2018-10-03T01:22:28.118Z,3.00
2018-10-03T01:25:03.231Z,2.43
2018-10-03T01:27:33.109Z,2.80
2018-10-03T01:30:01.920Z,3.20
2018-10-03T01:32:31.055Z,2.90
2018-10-03T01:35:03.017Z,3.03
2018-10-03T01:37:31.553Z,2.80
2018-10-03T01:40:00.024Z,2.70
2018-10-03T01:42:28.470Z,2.40
2018-10-03T01:44:56.920Z,2.70
2018-10-03T01:47:25.474Z,2.83
2018-10-03T01:49:53.887Z,2.60
2018-10-03T01:52:22.370Z,2.47
2018-10-03T01:54:51.307Z,2.60
2018-10-03T01:57:20.007Z,2.60
2018-10-03T01:59:48.410Z,2.67
2018-10-03T02:02:16.909Z,2.70
2018-10-03T02:04:45.648Z,2.57
2018-10-03T02:07:14.148Z,2.63
2018-10-03T02:09:42.596Z,2.57
2018-10-03T02:12:20.461Z,3.00
2018-10-03T02:14:49.051Z,2.97
2018-10-03T02:17:17.559Z,3.00
2018-10-03T02:19:51.036Z,2.50
2018-10-03T02:22:19.520Z,2.60
2018-10-03T02:24:48.139Z,2.73
2018-10-03T02:27:16.650Z,2.73
2018-10-03T02:29:45.144Z,2.97
2018-10-03T02:32:13.624Z,2.40
2018-10-03T02:34:42.159Z,2.50
2018-10-03T02:37:10.632Z,2.50
2018-10-03T02:39:39.048Z,2.47
2018-10-03T02:42:07.581Z,2.60
2018-10-03T02:44:36.057Z,3.10
2018-10-03T02:47:04.592Z,2.87
2018-10-03T02:49:33.238Z,2.80
2018-10-03T02:52:01.650Z,3.37
2018-10-03T02:54:30.209Z,2.53
2018-10-03T02:56:58.659Z,3.50
2018-10-03T02:59:27.335Z,3.10
2018-10-03T03:01:55.925Z,3.27
2018-10-03T03:04:27.203Z,2.97
2018-10-03T03:06:55.619Z,3.00
2018-10-03T03:09:24.164Z,3.00
2018-10-03T03:11:52.670Z,2.67
2018-10-03T03:14:21.220Z,2.87
2018-10-03T03:16:49.720Z,2.77
2018-10-03T03:19:18.298Z,2.70
2018-10-03T03:21:46.711Z,2.10
2018-10-03T03:24:15.236Z,2.70
2018-10-03T03:26:43.673Z,2.83
2018-10-03T03:29:12.148Z,2.67
2018-10-03T03:31:45.166Z,3.23
2018-10-03T03:34:13.688Z,2.87
2018-10-03T03:36:42.289Z,2.90
2018-10-03T03:39:10.780Z,3.00
2018-10-03T03:41:39.413Z,2.60
2018-10-03T03:44:07.952Z,2.60
2018-10-03T03:46:36.419Z,2.57
2018-10-03T03:49:04.888Z,2.83
2018-10-03T03:51:39.150Z,2.33
2018-10-03T03:54:07.588Z,3.23
2018-10-03T03:56:36.125Z,3.10
2018-10-03T03:59:04.581Z,3.00
2018-10-03T04:01:33.151Z,2.97
2018-10-03T04:04:01.768Z,2.70
2018-10-03T04:06:33.116Z,3.00
2018-10-03T04:09:03.301Z,2.70
2018-10-03T04:11:31.872Z,2.50
2018-10-03T04:14:00.329Z,3.00
2018-10-03T04:16:28.876Z,2.50
2018-10-03T04:18:57.301Z,3.20
2018-10-03T04:21:32.261Z,3.13
2018-10-03T04:24:00.852Z,2.90
2018-10-03T04:26:29.308Z,2.93
2018-10-03T04:28:57.764Z,2.60
2018-10-03T04:31:26.450Z,2.77
2018-10-03T04:33:54.957Z,2.60
2018-10-03T04:36:23.623Z,2.77
2018-10-03T04:38:57.256Z,3.50
2018-10-03T04:41:25.744Z,3.83
2018-10-03T04:43:54.255Z,2.80
2018-10-03T04:46:22.874Z,3.50
2018-10-03T04:48:51.427Z,2.97
2018-10-03T04:51:19.908Z,3.27
2018-10-03T04:53:48.329Z,2.63
2018-10-03T04:56:21.096Z,2.90
2018-10-03T04:58:49.590Z,3.07
2018-10-03T05:01:18.436Z,2.83
2018-10-03T05:03:46.933Z,2.80
2018-10-03T05:06:15.406Z,2.90
2018-10-03T05:08:44.007Z,3.63
2018-10-03T05:11:12.639Z,3.30
2018-10-03T05:13:41.175Z,3.10
2018-10-03T05:16:09.758Z,3.33
2018-10-03T05:18:38.252Z,3.37
2018-10-03T05:21:07.055Z,3.70
2018-10-03T05:23:35.788Z,3.07
2018-10-03T05:26:04.285Z,3.17
2018-10-03T05:28:33.192Z,3.20
2018-10-03T05:31:01.658Z,3.40
2018-10-03T05:33:30.879Z,3.47
2018-10-03T05:35:59.461Z,3.30
2018-10-03T05:38:28.160Z,3.73
2018-10-03T05:40:56.577Z,3.63
2018-10-03T05:43:25.084Z,3.50
2018-10-03T05:45:57.220Z,3.50
2018-10-03T05:48:25.836Z,4.17
2018-10-03T05:50:54.418Z,4.00
2018-10-03T05:53:22.913Z,3.50
2018-10-03T05:55:57.417Z,3.80
2018-10-03T05:58:26.014Z,3.63
2018-10-03T06:00:57.137Z,3.97
2018-10-03T06:03:27.825Z,4.10
2018-10-03T06:05:56.388Z,4.43
2018-10-03T06:08:24.896Z,3.50
2018-10-03T06:10:53.417Z,4.07
2018-10-03T06:13:22.004Z,4.10
2018-10-03T06:15:50.481Z,3.20
2018-10-03T06:18:18.947Z,4.00
2018-10-03T06:20:51.355Z,3.83
2018-10-03T06:23:19.788Z,4.00
2018-10-03T06:25:48.276Z,3.20
2018-10-03T06:28:16.907Z,3.67
2018-10-03T06:30:45.461Z,3.60
2018-10-03T06:33:13.932Z,4.10
2018-10-03T06:35:42.436Z,3.70
2018-10-03T06:38:10.899Z,3.43
2018-10-03T06:40:45.366Z,4.20
2018-10-03T06:43:13.820Z,4.00
2018-10-03T06:45:42.448Z,4.37
2018-10-03T06:48:11.068Z,3.47
2018-10-03T06:50:39.698Z,3.60
2018-10-03T06:53:15.064Z,3.50
2018-10-03T06:55:43.558Z,4.10
2018-10-03T06:58:12.052Z,3.43
2018-10-03T07:00:40.584Z,3.40
2018-10-03T07:03:08.983Z,3.37
2018-10-03T07:05:37.609Z,3.20
2018-10-03T07:08:06.054Z,3.20
2018-10-03T07:10:34.592Z,3.53
2018-10-03T07:13:03.381Z,3.80
2018-10-03T07:15:31.837Z,4.00
2018-10-03T07:18:03.180Z,3.57
2018-10-03T07:20:31.636Z,3.60
2018-10-03T07:23:03.217Z,3.90
2018-10-03T07:25:31.783Z,4.10
2018-10-03T07:28:00.391Z,3.43
2018-10-03T07:30:33.320Z,4.10
2018-10-03T07:33:02.005Z,3.80
2018-10-03T07:35:30.563Z,4.00
2018-10-03T07:37:59.173Z,3.23
2018-10-03T07:40:27.661Z,3.33
2018-10-03T07:42:56.160Z,3.00
2018-10-03T07:45:24.777Z,3.87
2018-10-03T07:47:53.569Z,4.07
2018-10-03T07:50:22.010Z,3.30
2018-10-03T07:52:50.524Z,4.07
2018-10-03T07:55:18.946Z,4.30
2018-10-03T07:57:51.625Z,3.67
2018-10-03T08:00:29.222Z,4.50
2018-10-03T08:02:58.343Z,5.00
2018-10-03T08:05:27.193Z,3.73
2018-10-03T08:07:56.089Z,3.93
2018-10-03T08:10:24.985Z,3.70
2018-10-03T08:12:53.517Z,3.63
2018-10-03T08:15:27.355Z,3.70
2018-10-03T08:17:55.780Z,3.83
2018-10-03T08:20:24.241Z,3.97
2018-10-03T08:22:54.164Z,3.70
2018-10-03T08:25:22.657Z,3.00
2018-10-03T08:27:51.145Z,3.50
2018-10-03T08:30:19.681Z,4.10
2018-10-03T08:32:48.336Z,4.27
2018-10-03T08:35:16.632Z,3.70
2018-10-03T08:37:45.661Z,4.03
2018-10-03T08:40:14.163Z,3.63
2018-10-03T08:42:42.656Z,3.10
2018-10-03T08:45:11.133Z,3.50
2018-10-03T08:47:39.837Z,3.43
2018-10-03T08:50:09.841Z,3.70
2018-10-03T08:52:38.636Z,3.40
2018-10-03T08:55:07.097Z,4.30
2018-10-03T08:57:35.727Z,3.60
2018-10-03T09:00:04.749Z,3.23
2018-10-03T09:02:33.393Z,3.57
2018-10-03T09:05:03.259Z,3.50
2018-10-03T09:07:31.745Z,3.33
2018-10-03T09:10:00.206Z,3.53
2018-10-03T09:12:28.915Z,3.33
2018-10-03T09:14:57.635Z,3.90
2018-10-03T09:17:26.229Z,3.43
2018-10-03T09:19:54.779Z,3.40
2018-10-03T09:22:23.233Z,3.60
2018-10-03T09:24:51.803Z,3.30
2018-10-03T09:27:20.389Z,4.00
2018-10-03T09:29:51.309Z,4.10
2018-10-03T09:32:21.487Z,3.50
2018-10-03T09:34:50.101Z,3.57
2018-10-03T09:37:26.999Z,2.80
2018-10-03T09:39:55.587Z,3.10
2018-10-03T09:42:24.183Z,3.50
2018-10-03T09:44:57.405Z,2.77
2018-10-03T09:47:27.293Z,3.23
2018-10-03T09:49:55.801Z,3.20
2018-10-03T09:52:24.320Z,3.40
2018-10-03T09:54:52.955Z,3.80
2018-10-03T09:57:21.420Z,3.50
2018-10-03T09:59:49.888Z,2.93
2018-10-03T10:02:18.378Z,3.00
2018-10-03T10:04:46.832Z,2.43
2018-10-03T10:07:15.356Z,3.47
2018-10-03T10:09:43.845Z,3.50
2018-10-03T10:12:15.387Z,2.93
2018-10-03T10:14:43.882Z,2.90
2018-10-03T10:17:12.323Z,3.40
2018-10-03T10:19:45.332Z,3.10
2018-10-03T10:22:13.844Z,3.30
2018-10-03T10:24:42.241Z,3.10
2018-10-03T10:27:10.740Z,3.10
2018-10-03T10:29:39.217Z,3.40
2018-10-03T10:32:07.929Z,3.23
2018-10-03T10:34:36.392Z,2.87
2018-10-03T10:37:04.873Z,2.73
2018-10-03T10:39:33.457Z,2.90
2018-10-03T10:42:02.027Z,2.93
2018-10-03T10:44:30.548Z,3.03
2018-10-03T10:46:59.003Z,2.80
2018-10-03T10:49:33.425Z,2.70
2018-10-03T10:52:03.356Z,2.30
2018-10-03T10:54:32.109Z,3.47
2018-10-03T10:57:03.387Z,3.00
2018-10-03T10:59:31.921Z,3.90
2018-10-03T11:02:00.324Z,3.70
2018-10-03T11:04:28.879Z,3.20
2018-10-03T11:06:57.443Z,3.43
2018-10-03T11:09:26.034Z,3.47
2018-10-03T11:11:54.449Z,3.20
2018-10-03T11:14:23.096Z,3.20
2018-10-03T11:16:51.830Z,2.50
2018-10-03T11:19:20.316Z,3.40
2018-10-03T11:21:48.784Z,3.00
2018-10-03T11:24:17.369Z,2.90
2018-10-03T11:26:45.781Z,2.63
2018-10-03T11:29:14.263Z,3.03
2018-10-03T11:31:42.712Z,3.20
2018-10-03T11:34:11.225Z,2.90
2018-10-03T11:36:39.648Z,2.20
2018-10-03T11:39:09.230Z,2.07
2018-10-03T11:41:37.879Z,2.90
2018-10-03T11:44:08.024Z,2.50
2018-10-03T11:46:39.519Z,3.60
2018-10-03T11:49:08.061Z,3.40
2018-10-03T11:51:36.953Z,2.63
2018-10-03T11:54:05.393Z,3.33
2018-10-03T11:56:33.871Z,3.20
2018-10-03T11:59:03.384Z,2.70
2018-10-03T12:01:32.017Z,2.37
2018-10-03T12:04:00.530Z,3.20
2018-10-03T12:06:29.227Z,4.33
2018-10-03T12:09:09.566Z,2.47
2018-10-03T12:11:38.130Z,2.70
2018-10-03T12:14:07.243Z,2.40
2018-10-03T12:16:35.787Z,2.60
2018-10-03T12:19:04.296Z,2.37
2018-10-03T12:21:32.814Z,2.60
2018-10-03T12:24:01.295Z,2.80
2018-10-03T12:26:30.123Z,2.47
2018-10-03T12:28:58.672Z,2.47
2018-10-03T12:31:27.274Z,3.00
2018-10-03T12:33:55.912Z,3.10
2018-10-03T12:36:24.573Z,2.70
2018-10-03T12:38:53.537Z,2.40
2018-10-03T12:41:22.089Z,2.30
2018-10-03T12:43:50.583Z,2.60
2018-10-03T12:46:19.045Z,3.30
2018-10-03T12:48:47.484Z,2.40
2018-10-03T12:51:15.954Z,2.50
2018-10-03T12:53:44.616Z,2.30
2018-10-03T12:56:13.116Z,2.53
2018-10-03T12:58:41.639Z,2.00
2018-10-03T13:01:10.144Z,2.97
2018-10-03T13:03:38.589Z,2.30
2018-10-03T13:06:07.407Z,2.27
2018-10-03T13:08:45.024Z,2.57
2018-10-03T13:11:13.480Z,2.17
2018-10-03T13:13:41.925Z,1.90
2018-10-03T13:16:10.463Z,2.80
2018-10-03T13:18:38.884Z,2.40
2018-10-03T13:21:07.349Z,1.87
2018-10-03T13:23:35.834Z,2.60
2018-10-03T13:26:04.743Z,2.30
2018-10-03T13:28:33.264Z,2.27
2018-10-03T13:31:03.534Z,2.10
2018-10-03T13:33:32.043Z,2.27
2018-10-03T13:36:03.867Z,2.53
2018-10-03T13:38:32.451Z,2.60
2018-10-03T13:41:00.962Z,2.67
2018-10-03T13:43:33.510Z,2.00
2018-10-03T13:46:02.019Z,2.70
2018-10-03T13:48:30.745Z,2.23
2018-10-03T13:51:03.468Z,1.97
2018-10-03T13:53:32.015Z,2.27
2018-10-03T13:56:00.853Z,2.37
2018-10-03T13:58:29.276Z,2.53
2018-10-03T14:00:57.834Z,2.57
2018-10-03T14:03:27.495Z,2.33
2018-10-03T14:05:56.010Z,2.20
2018-10-03T14:08:32.892Z,2.20
2018-10-03T14:11:01.439Z,2.50
2018-10-03T14:13:30.076Z,2.00
2018-10-03T14:15:58.507Z,2.00
2018-10-03T14:18:27.591Z,2.00
2018-10-03T14:20:57.510Z,2.13
2018-10-03T14:23:26.049Z,2.40
2018-10-03T14:25:54.581Z,2.60
2018-10-03T14:28:23.147Z,2.00
2018-10-03T14:31:03.940Z,2.87
2018-10-03T14:33:32.369Z,1.93
2018-10-03T14:36:00.870Z,2.23
2018-10-03T14:38:29.333Z,2.50
2018-10-03T14:40:57.829Z,1.97
2018-10-03T14:43:26.313Z,2.53
2018-10-03T14:45:57.459Z,1.87
2018-10-03T14:48:27.578Z,1.87
2018-10-03T14:50:56.118Z,2.43
2018-10-03T14:53:24.573Z,2.50
2018-10-03T14:55:53.045Z,2.13
2018-10-03T14:58:21.585Z,1.83
2018-10-03T15:00:51.349Z,2.00
2018-10-03T15:03:20.751Z,2.07
2018-10-03T15:05:49.294Z,2.40
2018-10-03T15:08:17.918Z,2.20
2018-10-03T15:10:46.452Z,2.13
2018-10-03T15:13:14.969Z,1.80
2018-10-03T15:15:43.486Z,2.37
2018-10-03T15:18:12.057Z,2.23
2018-10-03T15:20:40.581Z,1.57
2018-10-03T15:28:54.840Z,2.30
2018-10-03T15:31:23.351Z,2.23
2018-10-03T15:33:51.852Z,1.70
2018-10-03T15:36:20.427Z,2.40
2018-10-03T15:38:49.056Z,1.70
2018-10-03T15:41:17.556Z,2.17
2018-10-03T15:43:46.058Z,2.33
2018-10-03T15:46:14.608Z,1.97
2018-10-03T15:48:43.134Z,2.37
2018-10-03T15:51:11.694Z,2.40
2018-10-03T15:53:40.372Z,1.93
2018-10-03T15:56:09.071Z,2.03
2018-10-03T15:58:37.768Z,2.80
2018-10-03T16:01:06.377Z,2.03
2018-10-03T16:03:34.879Z,2.20
2018-10-03T16:06:03.415Z,2.20
2018-10-03T16:08:31.979Z,2.70
2018-10-03T16:11:00.444Z,2.60
2018-10-03T16:13:28.954Z,2.60
2018-10-03T16:15:57.492Z,1.60
2018-10-03T16:18:25.974Z,1.80
2018-10-03T16:20:54.529Z,2.30
2018-10-03T16:23:23.054Z,2.10
2018-10-03T16:25:51.609Z,2.20
2018-10-03T16:28:20.135Z,2.30
2018-10-03T16:30:48.663Z,2.30
2018-10-03T16:33:17.134Z,2.00
2018-10-03T16:35:45.646Z,2.20
2018-10-03T16:38:14.162Z,2.13
2018-10-03T16:40:42.659Z,2.30
2018-10-03T16:43:11.213Z,2.43
2018-10-03T16:45:39.710Z,2.30
2018-10-03T16:48:08.215Z,2.40
2018-10-03T16:50:36.715Z,2.27
2018-10-03T16:53:05.236Z,2.40
2018-10-03T16:55:33.754Z,2.10
2018-10-03T16:58:02.226Z,2.07
2018-10-03T17:00:30.711Z,2.43
2018-10-03T17:02:59.189Z,2.53
2018-10-03T17:05:27.697Z,1.93
2018-10-03T17:07:56.196Z,2.60
2018-10-03T17:10:24.703Z,2.10
2018-10-03T17:12:53.203Z,2.00
2018-10-03T17:15:21.767Z,2.30
2018-10-03T17:17:50.222Z,2.07
2018-10-03T17:20:18.755Z,1.87
2018-10-03T17:22:47.304Z,2.30
2018-10-03T17:25:21.612Z,2.60
2018-10-03T17:27:50.162Z,2.03
2018-10-03T17:30:18.625Z,2.40
2018-10-03T17:32:47.176Z,2.53
2018-10-03T17:35:15.675Z,2.43
2018-10-03T17:37:44.214Z,2.20
2018-10-03T17:40:12.706Z,1.83
2018-10-03T17:42:41.179Z,2.07
2018-10-03T17:45:09.650Z,2.50
2018-10-03T17:47:38.143Z,1.60
2018-10-03T17:50:06.627Z,1.83
2018-10-03T17:52:35.116Z,2.00
2018-10-03T17:55:03.619Z,2.07
2018-10-03T17:57:32.134Z,2.03
2018-10-03T18:00:00.665Z,2.23
2018-10-03T18:02:29.170Z,1.97
2018-10-03T18:04:57.689Z,2.30
2018-10-03T18:07:26.167Z,1.57
2018-10-03T18:09:54.692Z,1.80
2018-10-03T18:12:23.199Z,2.10
2018-10-03T18:14:51.746Z,2.17
2018-10-03T18:17:20.283Z,2.10
2018-10-03T18:19:48.786Z,2.27
2018-10-03T18:22:17.291Z,1.80
2018-10-03T18:24:45.761Z,1.97
2018-10-03T18:27:14.230Z,2.10
2018-10-03T18:29:42.711Z,2.00
2018-10-03T18:32:11.195Z,2.13
2018-10-03T18:34:39.710Z,2.20
2018-10-03T18:37:08.175Z,2.33
2018-10-03T18:39:36.664Z,2.83
2018-10-03T18:42:05.146Z,2.10
2018-10-03T18:44:33.670Z,2.03
2018-10-03T18:47:02.254Z,2.27
2018-10-03T18:49:30.723Z,2.70
2018-10-03T18:51:59.382Z,2.67
2018-10-03T18:54:27.805Z,2.23
2018-10-03T18:56:56.277Z,2.30
2018-10-03T18:59:24.788Z,2.00
2018-10-03T19:01:53.338Z,2.03
2018-10-03T19:04:22.035Z,2.30
2018-10-03T19:06:50.489Z,2.90
2018-10-03T19:09:18.985Z,2.30
2018-10-03T19:11:47.479Z,2.97
2018-10-03T19:14:15.964Z,2.20
2018-10-03T19:16:44.423Z,2.40
2018-10-03T19:19:12.919Z,2.47
2018-10-03T19:21:41.404Z,2.60
2018-10-03T19:24:09.931Z,2.73
2018-10-03T19:26:38.424Z,2.27
2018-10-03T19:29:06.945Z,1.87
2018-10-03T19:31:35.448Z,3.47
2018-10-03T19:34:03.936Z,2.50
2018-10-03T19:36:32.394Z,2.77
2018-10-03T19:39:00.875Z,2.97
2018-10-03T19:41:29.373Z,2.20
2018-10-03T19:43:57.917Z,2.50
2018-10-03T19:46:26.391Z,1.83
2018-10-03T19:48:54.872Z,2.33
2018-10-03T19:51:23.344Z,2.00
2018-10-03T19:53:51.827Z,2.40
2018-10-03T19:56:20.312Z,2.60
2018-10-03T19:58:48.815Z,1.93
2018-10-03T20:01:17.311Z,2.73
2018-10-03T20:03:45.815Z,2.63
2018-10-03T20:06:14.288Z,2.13
2018-10-03T20:08:42.761Z,2.60
2018-10-03T20:11:11.232Z,3.00
2018-10-03T20:13:39.719Z,2.73
2018-10-03T20:16:08.239Z,2.73
2018-10-03T20:18:36.698Z,2.40
2018-10-03T20:21:05.255Z,1.80
2018-10-03T20:23:33.720Z,2.50
2018-10-03T20:26:02.280Z,2.03
2018-10-03T20:28:30.766Z,2.67
2018-10-03T20:30:59.242Z,3.03
2018-10-03T20:33:27.774Z,2.60
2018-10-03T20:35:56.292Z,2.20
2018-10-03T20:38:24.780Z,2.57
2018-10-03T20:40:53.312Z,2.57
2018-10-03T20:43:21.772Z,2.67
2018-10-03T20:45:50.264Z,2.30
2018-10-03T20:48:18.775Z,2.07
2018-10-03T20:50:47.255Z,2.60
2018-10-03T20:53:15.739Z,2.40
2018-10-03T20:55:44.218Z,2.00
2018-10-03T20:58:12.681Z,2.30
2018-10-03T21:00:41.242Z,2.70
2018-10-03T21:03:09.709Z,2.20
2018-10-03T21:05:38.201Z,2.53
2018-10-03T21:08:06.739Z,2.80
2018-10-03T21:10:35.218Z,2.90
2018-10-03T21:13:03.712Z,2.83
2018-10-03T21:15:32.183Z,2.27
2018-10-03T21:18:00.709Z,2.90
2018-10-03T21:20:29.234Z,2.67
2018-10-03T21:22:57.741Z,2.47
2018-10-03T21:25:26.194Z,2.30
2018-10-03T21:27:54.687Z,2.60
2018-10-03T21:30:23.158Z,2.47
2018-10-03T21:32:51.643Z,2.60
2018-10-03T21:35:20.127Z,2.47
2018-10-03T21:37:48.604Z,2.70
2018-10-03T21:40:17.115Z,2.57
2018-10-03T21:42:45.652Z,2.43
2018-10-03T21:45:14.184Z,2.70
2018-10-03T21:47:42.669Z,2.90
2018-10-03T21:50:11.210Z,2.50
2018-10-03T21:52:39.654Z,3.37
2018-10-03T21:55:08.378Z,2.97
2018-10-03T21:57:36.871Z,2.83
2018-10-03T22:00:06.974Z,2.30
2018-10-03T22:02:35.565Z,2.70
2018-10-03T22:05:06.572Z,2.63
2018-10-03T22:07:35.058Z,3.00
2018-10-03T22:10:03.603Z,2.80
2018-10-03T22:12:32.093Z,2.60
2018-10-03T22:15:00.588Z,2.80
2018-10-03T22:17:29.179Z,2.83
2018-10-03T22:19:57.702Z,2.70
2018-10-03T22:22:26.205Z,2.97
2018-10-03T22:24:54.709Z,2.90
2018-10-03T22:27:23.196Z,2.23
2018-10-03T22:29:51.731Z,2.77
2018-10-03T22:32:20.199Z,2.90
2018-10-03T22:34:48.684Z,3.07
2018-10-03T22:37:17.167Z,3.27
2018-10-03T22:39:45.660Z,3.33
2018-10-03T22:42:14.155Z,3.53
2018-10-03T22:44:42.639Z,3.20
2018-10-03T22:47:11.119Z,3.00
2018-10-03T22:49:39.604Z,2.83
2018-10-03T22:52:08.133Z,3.40
2018-10-03T22:54:36.580Z,3.20
2018-10-03T22:57:05.091Z,3.00
2018-10-03T22:59:33.572Z,3.27
2018-10-03T23:02:02.042Z,2.73
2018-10-03T23:04:30.527Z,2.83
2018-10-03T23:06:59.045Z,2.30
2018-10-03T23:09:27.539Z,2.80
2018-10-03T23:11:56.047Z,2.47
2018-10-03T23:14:24.539Z,3.00
2018-10-03T23:16:53.109Z,3.10
2018-10-03T23:19:21.591Z,2.47
2018-10-03T23:21:50.067Z,2.73
2018-10-03T23:24:18.575Z,2.53
2018-10-03T23:26:47.055Z,3.00
2018-10-03T23:29:15.533Z,2.53
2018-10-03T23:31:43.988Z,2.37
2018-10-03T23:34:12.480Z,3.23
2018-10-03T23:36:40.987Z,2.97
2018-10-03T23:39:11.023Z,2.60
2018-10-03T23:41:39.654Z,2.83
2018-10-03T23:44:08.232Z,2.50
2018-10-03T23:46:36.706Z,2.87
2018-10-03T23:49:05.449Z,2.80
2018-10-03T23:51:33.970Z,2.83
2018-10-03T23:54:02.474Z,2.90
2018-10-03T23:56:30.955Z,2.73
2018-10-03T23:58:59.452Z,2.97
